Time;durP1;ratioP1;P1;durP2;ratioP2;P2;SDS_P1;SDS_P2;PMS_P1;PMS_P2;Temp;Humidity;BMP_temperature;BMP_pressure;BME280_temperature;BME280_humidity;BME280_pressure;Samples;Min_cycle;Max_cycle;Signal;HPM_P1;HPM_P2
2022/10/07 00:02:05;;;;;;;14.98;5.57;;;8.00;99.90;;;;;;6276468;22;20031;-84
2022/10/07 00:04:31;;;;;;;14.55;5.13;;;8.00;99.90;;;;;;6276171;22;20019;-84
2022/10/07 00:06:57;;;;;;;11.57;4.95;;;8.50;99.90;;;;;;6248769;22;20016;-84
2022/10/07 00:09:23;;;;;;;14.40;5.05;;;8.00;99.90;;;;;;6275738;22;20517;-84
2022/10/07 00:11:49;;;;;;;14.80;5.50;;;8.00;99.90;;;;;;6276615;22;20015;-84
2022/10/07 00:14:14;;;;;;;14.88;4.90;;;8.00;99.90;;;;;;6248332;22;20020;-84
2022/10/07 00:16:40;;;;;;;13.88;5.10;;;8.00;99.90;;;;;;6276488;22;20374;-84
2022/10/07 00:19:11;;;;;;;14.60;4.80;;;8.00;99.90;;;;;;6249691;22;20043;-84
2022/10/07 00:21:38;;;;;;;16.00;5.45;;;8.00;99.90;;;;;;6248800;22;20020;-84
2022/10/07 00:24:17;;;;;;;16.30;5.50;;;8.00;99.90;;;;;;6249467;22;20011;-84
2022/10/07 00:26:43;;;;;;;12.10;4.90;;;8.00;99.90;;;;;;6248291;22;20066;-84
2022/10/07 00:29:08;;;;;;;17.15;4.90;;;8.50;99.90;;;;;;6249140;22;20043;-84
2022/10/07 00:31:36;;;;;;;12.95;4.30;;;8.00;99.90;;;;;;6249570;22;20348;-84
2022/10/07 00:34:02;;;;;;;14.75;5.10;;;8.90;99.90;;;;;;6275610;22;20016;-84
2022/10/07 00:36:31;;;;;;;15.45;5.18;;;8.20;99.90;;;;;;6276339;22;20018;-84
2022/10/07 00:39:02;;;;;;;13.30;4.13;;;7.90;99.90;;;;;;6276684;22;20007;-84
2022/10/07 00:41:37;;;;;;;14.50;4.78;;;7.90;99.90;;;;;;6248099;22;20011;-84
2022/10/07 00:44:28;;;;;;;12.10;4.20;;;7.90;99.90;;;;;;6249277;22;20024;-84
2022/10/07 00:46:54;;;;;;;15.30;4.50;;;7.80;99.90;;;;;;6276610;22;20042;-84
2022/10/07 00:49:21;;;;;;;12.60;4.70;;;7.80;99.90;;;;;;6248137;22;20016;-84
2022/10/07 00:51:49;;;;;;;11.88;4.47;;;7.80;99.90;;;;;;6249350;22;20026;-84
2022/10/07 00:54:16;;;;;;;12.05;4.40;;;7.80;99.90;;;;;;6276029;22;20012;-84
2022/10/07 00:56:47;;;;;;;14.02;4.38;;;8.60;99.90;;;;;;6275514;22;20023;-84
2022/10/07 00:59:15;;;;;;;13.55;4.70;;;7.70;99.90;;;;;;6276079;22;20012;-84
2022/10/07 01:01:41;;;;;;;16.10;4.78;;;7.70;99.90;;;;;;6275901;22;20072;-84
2022/10/07 01:04:12;;;;;;;13.07;4.80;;;7.80;99.90;;;;;;6248849;22;20026;-84
2022/10/07 01:06:38;;;;;;;14.40;4.70;;;7.80;99.90;;;;;;6276146;22;20043;-84
2022/10/07 01:09:13;;;;;;;15.40;5.20;;;7.80;99.90;;;;;;6196295;22;20053;-84
2022/10/07 01:12:18;;;;;;;15.57;5.22;;;7.30;99.90;;;;;;6249016;22;20003;-84
2022/10/07 01:15:01;;;;;;;13.07;4.72;;;7.80;99.90;;;;;;6173214;22;20451;-84
2022/10/07 01:17:45;;;;;;;13.57;4.30;;;7.80;99.90;;;;;;6247521;22;20054;-85
2022/10/07 01:20:28;;;;;;;13.23;4.50;;;7.80;99.90;;;;;;6248554;22;20077;-85
2022/10/07 01:23:25;;;;;;;12.17;4.53;;;7.90;99.90;;;;;;6247821;22;20011;-85
2022/10/07 01:26:16;;;;;;;11.63;4.70;;;7.90;99.90;;;;;;6248343;22;20444;-84
2022/10/07 01:29:02;;;;;;;13.70;4.50;;;7.90;99.90;;;;;;6249421;22;20071;-84
2022/10/07 01:31:43;;;;;;;13.50;4.45;;;7.90;99.90;;;;;;6279023;22;20022;-84
2022/10/07 01:34:10;;;;;;;16.10;5.07;;;7.90;99.90;;;;;;6276229;22;20011;-84
2022/10/07 01:36:37;;;;;;;14.38;5.72;;;7.90;99.90;;;;;;6276205;22;20069;-85
2022/10/07 01:39:09;;;;;;;15.40;5.10;;;7.90;99.90;;;;;;6248162;22;20016;-84
2022/10/07 01:41:48;;;;;;;14.38;5.13;;;9.10;99.90;;;;;;6248847;22;20463;-84
2022/10/07 01:44:13;;;;;;;11.73;5.00;;;8.60;99.90;;;;;;6247470;22;20050;-84
2022/10/07 01:46:41;;;;;;;17.63;5.25;;;7.90;99.90;;;;;;6276114;22;20015;-84
2022/10/07 01:49:16;;;;;;;14.55;4.57;;;7.80;99.90;;;;;;6248360;22;20051;-84
2022/10/07 01:52:02;;;;;;;12.07;4.82;;;7.70;99.90;;;;;;6247789;22;20448;-85
2022/10/07 01:54:56;;;;;;;14.27;4.70;;;7.60;99.90;;;;;;6248629;22;20377;-84
2022/10/07 01:57:58;;;;;;;16.03;5.10;;;7.70;99.90;;;;;;6248689;22;20107;-84
2022/10/07 02:00:24;;;;;;;13.45;4.57;;;7.80;99.90;;;;;;6248331;22;20478;-84
2022/10/07 02:03:27;;;;;;;13.48;4.90;;;7.80;99.90;;;;;;6274847;22;20062;-85
2022/10/07 02:06:06;;;;;;;13.50;5.18;;;7.80;99.90;;;;;;6274141;22;20028;-84
2022/10/07 02:13:46;;;;;;;15.70;5.18;;;7.80;99.90;;;;;;6241371;22;20091;-84
2022/10/07 02:16:24;;;;;;;13.63;4.95;;;7.90;99.90;;;;;;6275835;22;20020;-85
2022/10/07 02:18:52;;;;;;;16.13;5.30;;;8.00;99.90;;;;;;6248698;22;20011;-84
2022/10/07 02:21:24;;;;;;;13.65;5.05;;;8.00;99.90;;;;;;6274455;22;20027;-84
2022/10/07 02:23:52;;;;;;;15.95;5.18;;;8.10;99.90;;;;;;6248955;22;20019;-84
2022/10/07 02:26:21;;;;;;;15.02;5.10;;;8.10;99.90;;;;;;6246970;22;20015;-84
2022/10/07 02:28:51;;;;;;;15.63;4.68;;;9.00;99.90;;;;;;6248759;22;20026;-84
2022/10/07 02:31:25;;;;;;;19.25;4.55;;;8.10;99.90;;;;;;6276067;22;20007;-84
2022/10/07 02:33:52;;;;;;;16.27;5.03;;;8.10;99.90;;;;;;6249235;22;20066;-84
2022/10/07 02:36:26;;;;;;;13.85;4.65;;;8.90;99.90;;;;;;6250249;22;20022;-84
2022/10/07 02:38:52;;;;;;;14.75;4.55;;;8.10;99.90;;;;;;6250990;22;20094;-84
2022/10/07 02:41:31;;;;;;;16.42;4.65;;;8.10;99.90;;;;;;6248808;22;20054;-85
2022/10/07 02:44:31;;;;;;;11.90;4.60;;;8.10;99.90;;;;;;6278105;22;20007;-84
2022/10/07 02:47:18;;;;;;;13.10;4.30;;;8.10;99.90;;;;;;6142558;22;20022;-85
2022/10/07 02:49:48;;;;;;;16.65;5.05;;;8.10;99.90;;;;;;6277573;22;20019;-85
2022/10/07 02:52:20;;;;;;;14.67;4.57;;;8.60;99.90;;;;;;6275736;22;20061;-84
2022/10/07 02:54:54;;;;;;;16.27;4.68;;;9.20;99.90;;;;;;6249395;22;20094;-84
2022/10/07 02:57:40;;;;;;;15.27;4.65;;;8.10;99.90;;;;;;6268683;22;20023;-84
2022/10/07 03:00:08;;;;;;;17.30;4.97;;;8.00;99.90;;;;;;6250008;22;20019;-84
2022/10/07 03:02:56;;;;;;;17.33;4.80;;;8.10;99.90;;;;;;6249246;22;20062;-84
2022/10/07 03:05:40;;;;;;;18.05;5.30;;;8.10;99.90;;;;;;6277356;22;20012;-84
2022/10/07 03:08:16;;;;;;;13.18;4.63;;;7.30;99.90;;;;;;6277388;22;20015;-84
2022/10/07 03:10:42;;;;;;;14.83;4.90;;;7.90;99.90;;;;;;6250207;22;20098;-84
2022/10/07 03:13:11;;;;;;;18.53;5.30;;;8.90;99.90;;;;;;6277193;22;20015;-84
2022/10/07 03:15:37;;;;;;;12.67;4.90;;;7.80;99.90;;;;;;6248716;22;20039;-84
2022/10/07 03:18:27;;;;;;;12.23;4.87;;;7.20;99.90;;;;;;6250126;22;20023;-84
2022/10/07 03:20:58;;;;;;;16.67;5.17;;;7.70;99.90;;;;;;6249889;22;20340;-84
2022/10/07 03:23:25;;;;;;;18.15;5.80;;;7.90;99.90;;;;;;6248881;22;20161;-84
2022/10/07 03:25:52;;;;;;;14.35;5.28;;;7.90;99.90;;;;;;6277402;22;20039;-84
2022/10/07 03:28:19;;;;;;;18.83;5.55;;;7.90;99.90;;;;;;6276688;22;20020;-84
2022/10/07 03:30:48;;;;;;;17.50;5.20;;;7.90;99.90;;;;;;6249007;22;20015;-84
2022/10/07 03:33:18;;;;;;;16.75;5.10;;;7.80;99.90;;;;;;6276664;22;20456;-84
2022/10/07 03:35:44;;;;;;;16.33;4.95;;;7.80;99.90;;;;;;6250330;22;20012;-84
2022/10/07 03:38:10;;;;;;;17.40;5.55;;;7.80;99.90;;;;;;6248739;22;20070;-84
2022/10/07 03:40:36;;;;;;;16.15;5.13;;;7.80;99.90;;;;;;6277455;22;20015;-84
2022/10/07 03:43:03;;;;;;;16.00;4.90;;;7.80;99.90;;;;;;6277275;22;20015;-85
2022/10/07 03:45:30;;;;;;;21.03;5.30;;;7.80;99.90;;;;;;6248820;22;20073;-84
2022/10/07 03:47:58;;;;;;;14.70;4.50;;;7.80;99.90;;;;;;6249825;22;20099;-84
2022/10/07 03:50:25;;;;;;;16.30;4.73;;;7.80;99.90;;;;;;6276852;22;20012;-84
2022/10/07 03:52:55;;;;;;;15.50;4.80;;;7.80;99.90;;;;;;6248828;22;20030;-84
2022/10/07 03:55:20;;;;;;;16.53;5.00;;;7.80;99.90;;;;;;6249121;22;20099;-84
2022/10/07 03:57:49;;;;;;;16.07;4.87;;;7.80;99.90;;;;;;6248935;22;20481;-84
2022/10/07 04:00:15;;;;;;;17.53;5.23;;;7.80;99.90;;;;;;6276479;22;20045;-84
2022/10/07 04:02:41;;;;;;;16.30;5.50;;;7.80;99.90;;;;;;6249116;22;20012;-84
2022/10/07 04:05:07;;;;;;;15.73;4.43;;;7.90;99.90;;;;;;6275236;22;20018;-84
2022/10/07 04:07:33;;;;;;;14.00;4.78;;;7.90;99.90;;;;;;6248758;22;20011;-85
2022/10/07 04:10:01;;;;;;;18.80;5.43;;;7.80;99.90;;;;;;6249294;22;20012;-85
2022/10/07 04:12:31;;;;;;;15.02;4.50;;;7.90;99.90;;;;;;6246847;22;20066;-84
2022/10/07 04:14:57;;;;;;;13.93;4.43;;;7.90;99.90;;;;;;6277175;22;20055;-84
2022/10/07 04:17:23;;;;;;;14.85;3.95;;;7.90;99.90;;;;;;6249287;22;20012;-84
2022/10/07 04:19:48;;;;;;;20.33;4.27;;;7.90;99.90;;;;;;6248582;22;20331;-85
2022/10/07 04:22:14;;;;;;;14.38;3.55;;;7.80;99.90;;;;;;6276624;22;20024;-84
2022/10/07 04:24:39;;;;;;;13.23;4.25;;;7.80;99.90;;;;;;6276426;22;20092;-84
2022/10/07 04:27:05;;;;;;;12.98;4.03;;;7.80;99.90;;;;;;6275711;22;20012;-84
2022/10/07 04:29:31;;;;;;;14.18;4.07;;;7.80;99.90;;;;;;6249102;22;20019;-84
2022/10/07 04:31:57;;;;;;;17.80;4.70;;;7.90;99.90;;;;;;6276604;22;20448;-84
2022/10/07 04:34:24;;;;;;;12.40;4.28;;;8.30;99.90;;;;;;6247943;22;20020;-84
2022/10/07 04:36:51;;;;;;;16.58;4.65;;;7.90;99.90;;;;;;6249298;22;20090;-84
2022/10/07 04:39:17;;;;;;;16.58;4.97;;;7.90;99.90;;;;;;6276342;22;20019;-84
2022/10/07 04:41:43;;;;;;;13.93;4.40;;;7.90;99.90;;;;;;6275894;22;20016;-85
2022/10/07 04:44:08;;;;;;;14.95;4.35;;;7.90;99.90;;;;;;6276400;22;20043;-84
2022/10/07 04:46:34;;;;;;;14.32;4.82;;;8.00;99.90;;;;;;6276661;22;20499;-84
2022/10/07 04:48:59;;;;;;;14.15;4.30;;;8.00;99.90;;;;;;6248577;22;20435;-84
2022/10/07 04:51:29;;;;;;;15.82;4.38;;;8.00;99.90;;;;;;6276378;22;20019;-84
2022/10/07 04:53:55;;;;;;;14.45;4.60;;;8.00;99.90;;;;;;6248131;22;20016;-85
2022/10/07 04:56:21;;;;;;;13.48;4.13;;;8.00;99.90;;;;;;6248148;22;20022;-84
2022/10/07 04:58:46;;;;;;;14.77;5.57;;;8.00;99.90;;;;;;6248990;22;20020;-84
2022/10/07 05:01:12;;;;;;;15.20;4.32;;;7.90;99.90;;;;;;6275046;22;20027;-85
2022/10/07 05:03:38;;;;;;;14.70;4.50;;;7.90;99.90;;;;;;6248834;22;20016;-84
2022/10/07 05:06:05;;;;;;;14.85;4.70;;;8.00;99.90;;;;;;6276111;22;20013;-84
2022/10/07 05:08:30;;;;;;;18.30;4.47;;;8.00;99.90;;;;;;6275176;22;20024;-85
2022/10/07 05:10:58;;;;;;;19.08;5.93;;;7.90;99.90;;;;;;6276436;22;20012;-85
2022/10/07 05:13:25;;;;;;;17.10;4.57;;;8.00;99.90;;;;;;6248571;22;20035;-84
2022/10/07 05:16:01;;;;;;;14.45;4.40;;;8.00;99.90;;;;;;6275289;22;20012;-85
2022/10/07 05:18:28;;;;;;;18.70;5.30;;;8.10;99.90;;;;;;6248612;22;20065;-85
2022/10/07 05:20:56;;;;;;;18.00;4.70;;;8.00;99.90;;;;;;6248937;22;20027;-84
2022/10/07 05:23:27;;;;;;;16.58;4.90;;;8.10;99.90;;;;;;6247390;22;20090;-84
2022/10/07 05:26:01;;;;;;;16.40;4.88;;;8.10;99.90;;;;;;6276415;22;20023;-84
2022/10/07 05:28:26;;;;;;;17.73;5.13;;;9.10;99.90;;;;;;6248628;22;20214;-84
2022/10/07 05:31:07;;;;;;;14.03;4.43;;;8.10;99.90;;;;;;6248328;22;20328;-84
2022/10/07 05:33:34;;;;;;;17.58;5.20;;;8.70;99.90;;;;;;6249030;22;20450;-84
2022/10/07 05:35:59;;;;;;;16.65;5.55;;;8.10;99.90;;;;;;6248099;22;20007;-84
2022/10/07 05:38:25;;;;;;;18.25;5.07;;;8.00;99.90;;;;;;6275802;22;20452;-84
2022/10/07 05:40:59;;;;;;;22.23;4.97;;;8.00;99.90;;;;;;6248804;22;20376;-84
2022/10/07 05:43:25;;;;;;;20.23;5.40;;;8.20;99.90;;;;;;6274935;22;20509;-85
2022/10/07 05:46:06;;;;;;;16.10;4.75;;;8.10;99.90;;;;;;6275699;22;20064;-84
2022/10/07 05:48:34;;;;;;;18.50;5.70;;;8.10;99.90;;;;;;6276174;22;20015;-85
2022/10/07 05:51:00;;;;;;;14.10;5.03;;;8.10;99.90;;;;;;6248202;22;20056;-84
2022/10/07 05:53:28;;;;;;;16.13;4.90;;;8.10;99.90;;;;;;6248049;22;20102;-85
2022/10/07 05:55:56;;;;;;;20.52;5.22;;;8.10;99.90;;;;;;6276199;22;20095;-85
2022/10/07 05:58:22;;;;;;;13.38;4.93;;;8.10;99.90;;;;;;6275134;22;20012;-84
2022/10/07 06:00:57;;;;;;;17.73;6.15;;;8.10;99.90;;;;;;6248629;22;20095;-84
2022/10/07 06:03:24;;;;;;;18.48;6.30;;;8.10;99.90;;;;;;6248156;22;20054;-84
2022/10/07 06:05:51;;;;;;;17.70;5.35;;;8.20;99.90;;;;;;6275143;22;20370;-84
2022/10/07 06:08:19;;;;;;;16.45;5.15;;;8.30;99.90;;;;;;6250102;22;20070;-84
2022/10/07 06:13:29;;;;;;;20.50;5.03;;;8.30;99.90;;;;;;6249344;22;20455;-84
2022/10/07 06:16:07;;;;;;;16.25;5.00;;;8.30;99.90;;;;;;6250840;22;20034;-84
2022/10/07 06:18:35;;;;;;;16.45;5.25;;;8.40;99.90;;;;;;6276197;22;20098;-84
2022/10/07 06:21:01;;;;;;;15.07;5.63;;;8.40;99.90;;;;;;6278266;22;20012;-85
2022/10/07 06:23:28;;;;;;;15.25;5.38;;;8.40;99.90;;;;;;6276953;22;20095;-84
2022/10/07 06:26:04;;;;;;;17.50;5.55;;;8.40;99.90;;;;;;6276844;22;20015;-84
2022/10/07 06:28:37;;;;;;;19.95;6.13;;;8.40;99.90;;;;;;6277190;22;20363;-84
2022/10/07 06:31:05;;;;;;;14.35;4.70;;;8.50;99.90;;;;;;6250754;22;20039;-84
2022/10/07 06:33:31;;;;;;;17.70;5.30;;;8.50;99.90;;;;;;6276748;22;20367;-84
2022/10/07 06:36:01;;;;;;;14.10;4.95;;;8.90;99.90;;;;;;6277438;22;20339;-84
2022/10/07 06:38:26;;;;;;;16.42;4.63;;;8.60;99.90;;;;;;6277395;22;20016;-85
2022/10/07 06:41:16;;;;;;;13.30;4.50;;;8.60;99.90;;;;;;6249275;22;20019;-85
2022/10/07 06:43:55;;;;;;;16.67;4.90;;;8.70;99.90;;;;;;6249436;22;20553;-84
2022/10/07 06:46:21;;;;;;;18.92;4.95;;;8.70;99.90;;;;;;6249023;22;20087;-84
2022/10/07 06:48:46;;;;;;;13.82;4.72;;;10.30;99.90;;;;;;6278392;22;20097;-86
2022/10/07 06:51:14;;;;;;;15.93;4.72;;;8.70;99.90;;;;;;6250077;22;20016;-84
2022/10/07 06:53:50;;;;;;;18.65;4.68;;;9.00;99.90;;;;;;6248729;22;20020;-86
2022/10/07 06:56:22;;;;;;;16.17;4.57;;;8.70;99.90;;;;;;6249771;22;20022;-88
2022/10/07 06:58:54;;;;;;;17.03;4.63;;;10.30;99.90;;;;;;6277276;22;20347;-85
2022/10/07 07:01:20;;;;;;;17.33;4.47;;;9.40;99.90;;;;;;6248580;22;20024;-83
2022/10/07 07:03:45;;;;;;;13.13;3.90;;;9.60;99.90;;;;;;6250510;22;20454;-84
2022/10/07 07:06:12;;;;;;;18.02;4.75;;;9.70;99.90;;;;;;6249692;22;20462;-83
2022/10/07 07:08:40;;;;;;;14.23;4.53;;;11.20;99.90;;;;;;6276484;22;20020;-83
2022/10/07 07:14:00;;;;;;;15.45;4.35;;;10.30;99.90;;;;;;6277546;22;20024;-84
2022/10/07 07:16:28;;;;;;;17.40;4.95;;;10.10;99.90;;;;;;6248623;22;20015;-84
2022/10/07 07:18:56;;;;;;;14.57;4.28;;;11.00;99.90;;;;;;6249836;22;20015;-82
2022/10/07 07:21:23;;;;;;;14.68;4.18;;;10.40;99.90;;;;;;6276372;22;20022;-82
2022/10/07 07:23:50;;;;;;;11.20;4.00;;;10.40;99.90;;;;;;6248843;22;20321;-83
2022/10/07 07:26:17;;;;;;;17.08;5.82;;;10.40;99.90;;;;;;6249483;22;20086;-82
2022/10/07 07:28:43;;;;;;;16.20;4.38;;;10.90;99.90;;;;;;6248901;22;20016;-82
2022/10/07 07:31:15;;;;;;;17.15;4.00;;;10.60;99.90;;;;;;6248747;22;20012;-82
2022/10/07 07:33:52;;;;;;;13.02;4.10;;;10.30;99.90;;;;;;6249774;22;20456;-82
2022/10/07 07:36:21;;;;;;;14.40;3.70;;;11.60;99.90;;;;;;6275581;22;20435;-82
2022/10/07 07:39:08;;;;;;;16.98;4.05;;;10.10;99.90;;;;;;6249734;22;20024;-83
2022/10/07 07:41:36;;;;;;;15.20;4.88;;;10.50;99.90;;;;;;6249553;22;20467;-82
2022/10/07 07:44:04;;;;;;;16.60;3.90;;;10.70;99.90;;;;;;6276145;22;20019;-82
2022/10/07 07:46:35;;;;;;;17.00;4.10;;;10.70;99.90;;;;;;6248991;22;20011;-82
2022/10/07 07:49:02;;;;;;;13.90;3.65;;;11.00;99.90;;;;;;6249050;22;20043;-82
2022/10/07 07:51:28;;;;;;;17.10;3.58;;;11.10;99.90;;;;;;6248017;22;20081;-82
2022/10/07 07:53:56;;;;;;;12.43;3.97;;;11.80;99.90;;;;;;6236093;22;20736;-82
2022/10/07 07:56:21;;;;;;;12.63;3.83;;;12.20;99.90;;;;;;6276652;22;20099;-82
2022/10/07 07:58:47;;;;;;;15.75;3.60;;;12.20;99.90;;;;;;6248592;22;20459;-82
2022/10/07 08:01:15;;;;;;;17.02;3.53;;;11.80;99.90;;;;;;6276641;22;20305;-82
2022/10/07 08:03:45;;;;;;;13.15;3.38;;;12.50;99.90;;;;;;6275997;22;20011;-82
2022/10/07 08:06:31;;;;;;;13.90;3.38;;;11.50;99.90;;;;;;6276064;22;20451;-83
2022/10/07 08:09:18;;;;;;;16.60;3.95;;;11.70;99.90;;;;;;6249447;22;20027;-83
2022/10/07 08:11:44;;;;;;;15.80;3.83;;;11.80;99.90;;;;;;6248931;22;20015;-83
2022/10/07 08:14:14;;;;;;;11.75;3.60;;;12.10;99.90;;;;;;6248794;22;20016;-83
2022/10/07 08:16:42;;;;;;;11.55;3.17;;;12.30;99.90;;;;;;6248973;22;20012;-82
2022/10/07 08:19:11;;;;;;;15.13;3.95;;;13.50;99.90;;;;;;6247994;22;20344;-83
2022/10/07 08:21:37;;;;;;;15.30;3.35;;;12.40;99.90;;;;;;6249207;22;20011;-82
2022/10/07 08:24:04;;;;;;;13.82;3.00;;;13.10;99.90;;;;;;6276491;22;20027;-83
2022/10/07 08:26:32;;;;;;;12.93;3.33;;;12.50;99.90;;;;;;6274696;22;20459;-83
2022/10/07 08:29:00;;;;;;;13.30;3.17;;;12.50;99.90;;;;;;6249370;22;20033;-83
2022/10/07 08:31:27;;;;;;;18.10;3.63;;;12.60;99.90;;;;;;6248075;22;20012;-82
2022/10/07 08:33:55;;;;;;;14.55;3.38;;;12.60;99.90;;;;;;6248353;22;20015;-82
2022/10/07 08:36:22;;;;;;;11.73;3.20;;;13.10;99.90;;;;;;6276322;22;20014;-82
2022/10/07 08:38:49;;;;;;;15.32;3.72;;;12.70;99.90;;;;;;6248398;22;20019;-82
2022/10/07 08:41:32;;;;;;;14.60;3.83;;;12.80;99.90;;;;;;6275366;22;20019;-82
2022/10/07 08:44:16;;;;;;;15.32;3.03;;;12.90;99.90;;;;;;6276500;22;20016;-82
2022/10/07 08:47:02;;;;;;;;;;;13.30;99.90;;;;;;6248231;22;20058;-82
2022/10/07 08:49:53;;;;;;;16.50;3.45;;;12.90;99.90;;;;;;6248216;22;19922;-84
2022/10/07 08:52:33;;;;;;;14.75;3.10;;;13.00;99.90;;;;;;6261087;22;20531;-84
2022/10/07 08:55:00;;;;;;;13.75;3.05;;;13.10;99.90;;;;;;6274647;22;20062;-82
2022/10/07 08:57:47;;;;;;;15.40;3.28;;;13.10;99.90;;;;;;6248090;22;20045;-82
2022/10/07 09:00:17;;;;;;;14.38;3.42;;;13.20;99.90;;;;;;6275200;22;20086;-82
2022/10/07 09:03:09;;;;;;;15.10;3.38;;;14.40;99.90;;;;;;6274663;22;20340;-82
2022/10/07 09:05:41;;;;;;;11.20;2.95;;;13.50;99.90;;;;;;6247046;22;20020;-82
2022/10/07 09:08:27;;;;;;;15.20;3.22;;;13.50;99.90;;;;;;6247417;22;20054;-81
2022/10/07 09:11:14;;;;;;;16.80;3.05;;;13.60;99.90;;;;;;6246980;22;20016;-82
2022/10/07 09:13:45;;;;;;;16.05;3.03;;;13.60;99.90;;;;;;6251349;22;20016;-84
2022/10/07 09:16:25;;;;;;;12.13;2.72;;;14.00;99.90;;;;;;6248019;22;20039;-85
2022/10/07 09:18:58;;;;;;;13.40;3.13;;;14.10;99.90;;;;;;6249044;22;20448;-84
2022/10/07 09:21:41;;;;;;;15.38;3.22;;;14.00;99.90;;;;;;6247592;22;20086;-85
2022/10/07 09:24:20;;;;;;;15.98;3.60;;;14.00;99.90;;;;;;6248659;22;20094;-85
2022/10/07 09:26:46;;;;;;;14.65;3.42;;;14.00;99.90;;;;;;6248328;22;20008;-84
2022/10/07 09:29:12;;;;;;;12.32;3.00;;;14.10;99.90;;;;;;6247563;22;20012;-84
2022/10/07 09:31:44;;;;;;;17.92;3.13;;;14.00;99.90;;;;;;6248396;22;20331;-83
2022/10/07 09:34:21;;;;;;;18.65;3.13;;;14.50;99.90;;;;;;6248609;22;20350;-85
2022/10/07 09:37:18;;;;;;;13.23;2.70;;;14.40;99.90;;;;;;6247668;22;20325;-84
2022/10/07 09:39:45;;;;;;;13.98;2.70;;;14.20;99.90;;;;;;6248822;22;20027;-84
2022/10/07 09:42:22;;;;;;;12.10;3.00;;;14.30;99.90;;;;;;6247517;22;20087;-84
2022/10/07 09:44:53;;;;;;;11.43;2.70;;;14.30;99.90;;;;;;6276620;22;20016;-84
2022/10/07 09:47:23;;;;;;;13.18;2.67;;;14.30;99.90;;;;;;6248441;22;20150;-84
2022/10/07 09:49:51;;;;;;;12.23;3.03;;;14.70;99.90;;;;;;6247695;22;20376;-84
2022/10/07 09:52:20;;;;;;;12.25;2.90;;;15.80;99.90;;;;;;6275298;22;20007;-83
2022/10/07 09:54:48;;;;;;;12.80;2.80;;;14.80;99.90;;;;;;6248366;22;20016;-84
2022/10/07 09:57:31;;;;;;;14.55;3.15;;;14.70;99.90;;;;;;6244906;22;20444;-83
2022/10/07 10:00:12;;;;;;;14.80;3.45;;;14.80;99.90;;;;;;6248503;22;20038;-83
2022/10/07 10:02:49;;;;;;;13.20;2.90;;;14.90;99.90;;;;;;6276036;22;20019;-84
2022/10/07 10:05:24;;;;;;;13.25;2.85;;;15.10;99.90;;;;;;6247216;22;20023;-83
2022/10/07 10:07:56;;;;;;;12.23;2.83;;;15.10;99.90;;;;;;6275857;22;20099;-83
2022/10/07 10:10:30;;;;;;;12.82;2.90;;;15.20;99.90;;;;;;6247235;22;20008;-84
2022/10/07 10:12:58;;;;;;;12.65;3.20;;;15.30;99.90;;;;;;6248690;22;20055;-84
2022/10/07 10:15:36;;;;;;;12.57;2.90;;;15.40;99.90;;;;;;6275653;22;20019;-84
2022/10/07 10:18:24;;;;;;;11.05;3.08;;;16.00;99.90;;;;;;6247746;22;20016;-84
2022/10/07 10:20:50;;;;;;;13.60;2.90;;;16.00;99.90;;;;;;6276059;22;20008;-84
2022/10/07 10:23:30;;;;;;;12.43;3.08;;;16.60;99.90;;;;;;6246413;22;20510;-83
2022/10/07 10:30:05;;;;;;;11.75;2.60;;;15.60;99.90;;;;;;6275467;22;20482;-84
2022/10/07 10:32:49;;;;;;;12.48;3.22;;;15.90;99.90;;;;;;6274551;22;20472;-84
2022/10/07 10:35:26;;;;;;;12.90;3.13;;;16.10;99.90;;;;;;6275326;22;20074;-84
2022/10/07 10:38:23;;;;;;;11.55;2.80;;;16.20;99.90;;;;;;6247567;22;20085;-84
2022/10/07 10:41:23;;;;;;;11.57;2.70;;;16.40;99.90;;;;;;6274358;22;20023;-84
2022/10/07 10:43:57;;;;;;;15.13;3.28;;;16.60;99.90;;;;;;6248346;22;20011;-83
2022/10/07 10:46:34;;;;;;;10.48;2.90;;;16.80;99.90;;;;;;6247034;22;20020;-86
2022/10/07 10:49:20;;;;;;;13.00;2.55;;;16.90;99.90;;;;;;6248665;22;20023;-86
2022/10/07 10:52:13;;;;;;;11.05;2.60;;;16.80;99.90;;;;;;6248456;22;20352;-86
2022/10/07 10:55:05;;;;;;;15.77;3.08;;;16.80;99.90;;;;;;6248750;22;20016;-86
2022/10/07 10:57:49;;;;;;;13.43;3.00;;;16.70;99.90;;;;;;6250228;22;20016;-87
2022/10/07 11:00:19;;;;;;;14.25;2.83;;;16.90;99.90;;;;;;6248998;22;20108;-86
2022/10/07 11:03:15;;;;;;;11.48;2.40;;;17.50;99.90;;;;;;6249994;22;20359;-86
2022/10/07 11:05:42;;;;;;;15.07;3.17;;;17.20;99.90;;;;;;6249598;22;20038;-85
2022/10/07 11:08:26;;;;;;;17.58;2.90;;;17.40;99.90;;;;;;6248710;22;20016;-84
2022/10/07 11:10:54;;;;;;;12.13;2.65;;;17.40;99.90;;;;;;6249858;22;20467;-85
2022/10/07 11:13:35;;;;;;;16.13;2.97;;;17.90;99.90;;;;;;6249657;22;20016;-84
2022/10/07 11:16:13;;;;;;;9.90;2.42;;;16.80;99.90;;;;;;6249899;22;20332;-84
2022/10/07 11:18:51;;;;;;;11.43;2.58;;;16.80;99.90;;;;;;6250263;22;20452;-84
2022/10/07 11:21:52;;;;;;;14.02;3.00;;;17.00;99.90;;;;;;6271478;22;20030;-82
2022/10/07 11:24:39;;;;;;;10.65;2.60;;;17.20;99.90;;;;;;6252984;22;20509;-80
2022/10/07 11:27:25;;;;;;;11.95;2.70;;;17.40;99.90;;;;;;6250096;22;20092;-80
2022/10/07 11:30:07;;;;;;;12.95;2.55;;;17.40;99.90;;;;;;6249253;22;20513;-79
2022/10/07 11:32:48;;;;;;;12.93;2.85;;;17.30;99.90;;;;;;6250163;22;20020;-82
2022/10/07 11:35:36;;;;;;;13.35;2.65;;;17.60;99.90;;;;;;6246841;22;20015;-80
2022/10/07 11:38:13;;;;;;;12.05;2.60;;;17.60;99.90;;;;;;6249967;22;20015;-79
2022/10/07 11:40:54;;;;;;;62.92;6.80;;;17.50;99.90;;;;;;6277369;22;20024;-80
2022/10/07 11:43:29;;;;;;;14.77;3.30;;;17.40;99.90;;;;;;6275923;22;20011;-79
2022/10/07 11:46:03;;;;;;;14.27;2.95;;;17.20;99.90;;;;;;6249748;22;20352;-80
2022/10/07 11:48:38;;;;;;;12.48;2.60;;;17.20;99.90;;;;;;6249564;22;20091;-80
2022/10/07 11:51:06;;;;;;;13.15;3.15;;;17.20;99.90;;;;;;6276609;22;20012;-80
2022/10/07 11:53:36;;;;;;;12.82;2.97;;;17.30;99.90;;;;;;6249919;22;20094;-80
2022/10/07 11:56:20;;;;;;;14.20;2.38;;;17.90;99.90;;;;;;6249554;22;20388;-80
2022/10/07 11:58:59;;;;;;;15.00;3.00;;;17.40;99.90;;;;;;6277360;22;20105;-81
2022/10/07 12:01:24;;;;;;;13.70;2.92;;;17.30;99.90;;;;;;6249310;22;20015;-80
2022/10/07 12:04:21;;;;;;;11.60;2.70;;;17.30;99.90;;;;;;6248702;22;20030;-80
2022/10/07 12:07:35;;;;;;;10.77;2.92;;;17.30;99.90;;;;;;6249522;22;20022;-80
2022/10/07 12:10:02;;;;;;;13.52;2.60;;;17.30;99.90;;;;;;6141424;22;20069;-80
2022/10/07 12:12:45;;;;;;;13.63;3.05;;;17.50;99.90;;;;;;6274819;22;20027;-80
2022/10/07 12:15:31;;;;;;;11.57;2.67;;;17.70;99.90;;;;;;6276544;22;20034;-81
2022/10/07 12:18:03;;;;;;;13.80;2.42;;;17.80;99.90;;;;;;6248682;22;20022;-82
2022/10/07 12:20:54;;;;;;;12.20;2.55;;;17.90;99.90;;;;;;6243584;23;20020;-79
2022/10/07 12:23:24;;;;;;;10.35;2.00;;;18.10;99.90;;;;;;6245497;22;20012;-80
2022/10/07 12:25:51;;;;;;;13.70;2.90;;;18.20;99.90;;;;;;6245077;22;20020;-80
2022/10/07 12:28:25;;;;;;;12.48;2.50;;;18.20;99.90;;;;;;6243920;23;20047;-80
2022/10/07 12:30:58;;;;;;;10.77;2.50;;;18.30;99.90;;;;;;6244290;23;20099;-81
2022/10/07 12:33:51;;;;;;;;;;;18.30;99.90;;;;;;6244754;23;20340;-81
2022/10/07 12:36:22;;;;;;;13.30;2.70;;;18.10;99.90;;;;;;6243855;23;19969;-80
2022/10/07 12:39:00;;;;;;;11.50;2.63;;;18.10;99.90;;;;;;6243469;23;20023;-80
2022/10/07 12:41:29;;;;;;;14.50;2.63;;;17.80;99.90;;;;;;6243835;23;20409;-80
2022/10/07 12:44:06;;;;;;;9.88;2.60;;;17.70;99.90;;;;;;6244477;23;20017;-80
2022/10/07 12:46:52;;;;;;;12.55;3.22;;;17.50;99.90;;;;;;6244703;23;20448;-80
2022/10/07 12:49:36;;;;;;;11.27;2.50;;;17.50;99.90;;;;;;6244153;22;20020;-81
2022/10/07 12:52:06;;;;;;;11.43;2.78;;;17.30;99.90;;;;;;6242743;23;20058;-81
2022/10/07 12:54:50;;;;;;;15.05;2.90;;;17.20;99.90;;;;;;6246064;22;20034;-81
2022/10/07 12:57:22;;;;;;;12.15;2.58;;;17.20;99.90;;;;;;6243391;23;20016;-81
2022/10/07 13:00:12;;;;;;;13.93;2.78;;;17.20;99.90;;;;;;6245045;22;20015;-81
2022/10/07 13:03:12;;;;;;;9.73;2.25;;;17.10;99.90;;;;;;6245825;23;20019;-81
2022/10/07 13:06:15;;;;;;;10.98;2.67;;;17.20;99.90;;;;;;6244144;23;20020;-81
2022/10/07 13:09:08;;;;;;;11.48;2.60;;;16.90;99.90;;;;;;6243981;23;20062;-81
2022/10/07 13:12:06;;;;;;;13.57;3.03;;;16.90;99.90;;;;;;6243815;23;20016;-81
2022/10/07 13:14:52;;;;;;;10.57;2.67;;;17.00;99.90;;;;;;6229889;23;20020;-81
2022/10/07 13:17:34;;;;;;;12.43;2.40;;;17.20;99.90;;;;;;6243075;23;20035;-81
2022/10/07 13:20:17;;;;;;;11.85;2.88;;;17.40;99.90;;;;;;6243968;22;20070;-81
2022/10/07 13:22:47;;;;;;;10.52;2.35;;;17.50;99.90;;;;;;6249125;22;20049;-81
2022/10/07 13:25:16;;;;;;;9.73;2.45;;;17.40;99.90;;;;;;6276188;22;20020;-81
2022/10/07 13:27:49;;;;;;;15.02;2.90;;;17.50;99.90;;;;;;6247742;22;20039;-81
2022/10/07 13:30:35;;;;;;;12.52;2.35;;;17.40;99.90;;;;;;6276172;22;20016;-80
2022/10/07 13:33:22;;;;;;;10.98;2.40;;;17.40;99.90;;;;;;6249091;22;20012;-81